Time;durP1;ratioP1;P1;durP2;ratioP2;P2;SDS_P1;SDS_P2;PMS_P1;PMS_P2;Temp;Humidity;BMP_temperature;BMP_pressure;BME280_temperature;BME280_humidity;BME280_pressure;Samples;Min_cycle;Max_cycle;Signal;HPM_P1;HPM_P2
2023/06/29 00:01:07;;;;;;;10.05;5.85;;;24.60;1.00;;;;;;4858898;29;20157;-55
2023/06/29 00:03:34;;;;;;;10.93;5.93;;;24.60;1.00;;;;;;4858712;29;20048;-57
2023/06/29 00:06:01;;;;;;;9.05;5.93;;;24.60;1.00;;;;;;4858801;29;20041;-57
2023/06/29 00:08:35;;;;;;;11.00;6.20;;;24.60;1.00;;;;;;4859064;29;20041;-56
2023/06/29 00:11:03;;;;;;;10.77;5.72;;;24.60;1.00;;;;;;4859015;29;20046;-57
2023/06/29 00:13:30;;;;;;;9.52;5.70;;;24.60;1.00;;;;;;4859118;29;20069;-57
2023/06/29 00:15:57;;;;;;;9.38;6.88;;;24.60;1.00;;;;;;4861562;29;20045;-55
2023/06/29 00:21:16;;;;;;;9.63;6.25;;;24.60;1.00;;;;;;4870614;29;20113;-56
2023/06/29 00:23:45;;;;;;;11.43;6.68;;;24.60;1.00;;;;;;4886908;29;20408;-56
2023/06/29 00:26:13;;;;;;;10.27;6.15;;;24.60;1.00;;;;;;4887448;29;20049;-54
2023/06/29 00:28:40;;;;;;;10.40;6.93;;;24.60;1.00;;;;;;4885671;29;20049;-55
2023/06/29 00:31:06;;;;;;;8.85;5.70;;;24.60;1.00;;;;;;4861855;29;20073;-56
2023/06/29 00:33:33;;;;;;;9.10;6.45;;;24.60;1.00;;;;;;4888467;29;20505;-56
2023/06/29 00:36:03;;;;;;;10.48;6.22;;;24.60;1.00;;;;;;4882227;29;20465;-56
2023/06/29 00:38:30;;;;;;;8.80;6.22;;;24.60;1.00;;;;;;4882292;29;20044;-57
2023/06/29 00:40:57;;;;;;;9.18;5.97;;;24.60;1.00;;;;;;4898998;29;20092;-57
2023/06/29 00:43:24;;;;;;;9.23;6.45;;;24.60;1.00;;;;;;4899304;29;20421;-55
2023/06/29 00:45:51;;;;;;;9.68;6.00;;;24.60;1.00;;;;;;4882048;29;20444;-52
2023/06/29 00:48:17;;;;;;;10.15;6.43;;;24.60;1.00;;;;;;4898930;29;20055;-51
2023/06/29 00:53:33;;;;;;;10.02;5.88;;;24.60;1.00;;;;;;5009307;23;20071;-49
2023/06/29 00:56:02;;;;;;;8.82;5.90;;;24.60;1.00;;;;;;4917849;29;20064;-52
2023/06/29 00:58:29;;;;;;;8.35;5.55;;;24.50;1.00;;;;;;4917783;29;20048;-56
2023/06/29 01:00:57;;;;;;;10.65;6.53;;;24.50;1.00;;;;;;4910420;29;20116;-50
2023/06/29 01:03:25;;;;;;;10.15;6.03;;;24.50;1.00;;;;;;4897086;29;20092;-51
2023/06/29 01:05:56;;;;;;;9.68;6.05;;;24.50;1.00;;;;;;4897111;29;20044;-53
2023/06/29 01:08:29;;;;;;;7.88;5.88;;;24.50;1.00;;;;;;4897237;29;20441;-50
2023/06/29 01:10:57;;;;;;;;;;;24.50;1.00;;;;;;4897735;29;20108;-52
2023/06/29 01:13:25;;;;;;;10.57;5.88;;;24.50;1.00;;;;;;4896808;29;19924;-53
2023/06/29 01:15:53;;;;;;;12.23;6.75;;;24.50;1.00;;;;;;4897061;29;20505;-51
2023/06/29 01:18:20;;;;;;;12.63;6.72;;;24.50;1.00;;;;;;4897064;29;20132;-51
2023/06/29 01:20:49;;;;;;;8.55;5.95;;;24.50;1.00;;;;;;4896984;29;20097;-50
2023/06/29 01:26:10;;;;;;;8.88;5.68;;;24.50;1.00;;;;;;4858318;29;20054;-53
2023/06/29 01:28:38;;;;;;;8.30;6.05;;;24.50;1.00;;;;;;4873511;29;20079;-55
2023/06/29 01:31:09;;;;;;;9.50;6.22;;;24.50;1.00;;;;;;4898043;29;20040;-49
2023/06/29 01:33:36;;;;;;;8.75;5.53;;;24.50;1.00;;;;;;4885248;29;20076;-54
2023/06/29 01:36:17;;;;;;;10.55;6.28;;;24.50;1.00;;;;;;4897909;29;20104;-49
2023/06/29 01:38:49;;;;;;;11.02;5.90;;;24.50;1.00;;;;;;4898063;29;20044;-54
2023/06/29 01:41:18;;;;;;;9.10;5.50;;;24.50;1.00;;;;;;4894748;29;20088;-49
2023/06/29 01:43:46;;;;;;;11.75;6.93;;;24.50;1.00;;;;;;4896506;29;20048;-51
2023/06/29 01:46:14;;;;;;;11.25;6.28;;;24.50;1.00;;;;;;4897766;29;20044;-51
2023/06/29 01:48:41;;;;;;;10.25;6.43;;;24.50;1.00;;;;;;4896384;29;20079;-55
2023/06/29 01:51:09;;;;;;;11.35;6.43;;;24.50;1.00;;;;;;4896284;29;20096;-54
2023/06/29 01:53:36;;;;;;;11.90;6.57;;;24.50;1.00;;;;;;4897628;29;20074;-52
2023/06/29 01:56:25;;;;;;;10.48;6.85;;;24.50;1.00;;;;;;4907183;29;20036;-49
2023/06/29 01:58:52;;;;;;;12.27;6.50;;;24.50;1.00;;;;;;4895583;29;20053;-51
2023/06/29 02:01:18;;;;;;;11.35;6.20;;;24.40;1.00;;;;;;4899202;29;20052;-50
2023/06/29 02:03:45;;;;;;;9.95;6.75;;;24.40;1.00;;;;;;4916019;29;20054;-52
2023/06/29 02:06:12;;;;;;;11.38;6.18;;;24.40;1.00;;;;;;4916075;29;20400;-49
2023/06/29 02:08:39;;;;;;;9.60;5.80;;;24.40;1.00;;;;;;4899374;29;20044;-54
2023/06/29 02:11:07;;;;;;;11.43;6.50;;;24.50;1.00;;;;;;4899200;29;20131;-51
2023/06/29 02:13:34;;;;;;;12.48;7.57;;;24.50;1.00;;;;;;4899080;29;20052;-51
2023/06/29 02:16:00;;;;;;;11.23;6.85;;;24.40;1.00;;;;;;4899395;29;20044;-52
2023/06/29 02:18:27;;;;;;;13.82;5.90;;;24.40;1.00;;;;;;4916145;29;20415;-50
2023/06/29 02:20:54;;;;;;;8.68;5.85;;;24.50;1.00;;;;;;4916058;29;20044;-50
2023/06/29 02:23:22;;;;;;;12.05;6.95;;;24.40;1.00;;;;;;4915902;29;20041;-49
2023/06/29 02:25:49;;;;;;;10.68;5.78;;;24.40;1.00;;;;;;4904302;29;20056;-49
2023/06/29 02:28:16;;;;;;;12.05;6.88;;;24.40;1.00;;;;;;4897131;29;20505;-49
2023/06/29 02:30:42;;;;;;;8.68;5.60;;;24.50;1.00;;;;;;4896873;29;20064;-50
2023/06/29 02:33:09;;;;;;;10.50;6.07;;;24.40;1.00;;;;;;4896781;29;20127;-53
2023/06/29 02:35:37;;;;;;;11.52;7.10;;;24.40;1.00;;;;;;4888818;29;20501;-52
2023/06/29 02:38:04;;;;;;;11.90;6.07;;;24.40;1.00;;;;;;4896756;29;20425;-55
2023/06/29 02:40:31;;;;;;;11.02;6.60;;;24.40;1.00;;;;;;4895538;29;20052;-53
2023/06/29 02:42:58;;;;;;;9.45;6.13;;;24.40;1.00;;;;;;4895560;29;20048;-52
2023/06/29 02:45:25;;;;;;;9.73;6.90;;;24.40;1.00;;;;;;4895200;29;20048;-52
2023/06/29 02:47:54;;;;;;;12.00;5.95;;;24.40;1.00;;;;;;4895470;29;20052;-51
2023/06/29 02:50:21;;;;;;;9.13;6.18;;;24.40;1.00;;;;;;4895438;29;20044;-55
2023/06/29 02:52:49;;;;;;;13.95;7.15;;;24.40;1.00;;;;;;4896845;29;20097;-52
2023/06/29 02:58:06;;;;;;;9.90;6.60;;;24.40;1.00;;;;;;4968048;23;20073;-54
2023/06/29 03:00:33;;;;;;;11.20;6.57;;;24.40;1.00;;;;;;4861277;29;20079;-53
2023/06/29 03:03:00;;;;;;;9.25;5.80;;;24.40;1.00;;;;;;4878066;29;20041;-54
2023/06/29 03:05:27;;;;;;;11.25;6.43;;;24.40;1.00;;;;;;4877990;29;20048;-53
2023/06/29 03:07:55;;;;;;;12.30;6.70;;;24.40;1.00;;;;;;4861155;29;20045;-49
2023/06/29 03:10:22;;;;;;;9.77;6.15;;;24.40;1.00;;;;;;4877953;29;20056;-53
2023/06/29 03:12:49;;;;;;;9.65;6.13;;;24.40;1.00;;;;;;4878004;29;20041;-53
2023/06/29 03:15:16;;;;;;;10.88;6.90;;;24.40;1.00;;;;;;4878087;29;20045;-53
2023/06/29 03:17:43;;;;;;;9.25;6.55;;;24.40;1.00;;;;;;4877958;29;20497;-53
2023/06/29 03:20:13;;;;;;;11.85;7.22;;;24.40;1.00;;;;;;4877662;29;20052;-53
2023/06/29 03:22:40;;;;;;;12.75;6.50;;;24.40;1.00;;;;;;4877773;29;20124;-52
2023/06/29 03:25:09;;;;;;;11.60;6.30;;;24.30;1.00;;;;;;4877519;29;20048;-53
2023/06/29 03:28:08;;;;;;;9.52;6.07;;;24.30;1.00;;;;;;4878390;29;20557;-54
2023/06/29 03:30:35;;;;;;;12.68;6.38;;;24.30;1.00;;;;;;4850344;29;20116;-49
2023/06/29 03:33:02;;;;;;;12.45;6.97;;;24.40;1.00;;;;;;4858755;29;20114;-50
2023/06/29 03:35:30;;;;;;;9.82;6.22;;;24.30;1.00;;;;;;4859235;29;20050;-50
2023/06/29 03:37:56;;;;;;;12.15;7.22;;;24.40;1.00;;;;;;4859155;29;20041;-51
2023/06/29 03:40:23;;;;;;;11.38;6.43;;;24.30;1.00;;;;;;4858954;29;20046;-51
2023/06/29 03:42:50;;;;;;;13.15;7.07;;;24.30;1.00;;;;;;4858881;29;20060;-51
2023/06/29 03:45:17;;;;;;;15.70;7.45;;;24.30;1.00;;;;;;4858505;29;20046;-51
2023/06/29 03:47:43;;;;;;;10.65;6.80;;;24.40;1.00;;;;;;4857936;29;20125;-52
2023/06/29 03:50:11;;;;;;;12.88;7.47;;;24.30;1.00;;;;;;4859979;29;20041;-52
2023/06/29 03:52:38;;;;;;;11.02;6.55;;;24.30;1.00;;;;;;4862443;29;20049;-51
2023/06/29 03:55:05;;;;;;;10.18;7.15;;;24.30;1.00;;;;;;4861926;29;20101;-48
2023/06/29 03:57:32;;;;;;;13.00;8.68;;;24.30;1.00;;;;;;4862376;29;20049;-56
2023/06/29 03:59:59;;;;;;;11.70;6.80;;;24.30;1.00;;;;;;4919845;23;20052;-50
2023/06/29 04:02:25;;;;;;;10.82;6.72;;;24.30;1.00;;;;;;4880815;29;20093;-52
2023/06/29 04:04:52;;;;;;;10.80;6.78;;;24.30;1.00;;;;;;4880660;29;20063;-54
2023/06/29 04:07:19;;;;;;;10.82;7.28;;;24.30;1.00;;;;;;4869965;29;20490;-51
2023/06/29 04:09:46;;;;;;;12.82;8.27;;;24.30;1.00;;;;;;4857559;29;20105;-50
2023/06/29 04:12:13;;;;;;;15.95;9.75;;;24.30;1.00;;;;;;4863176;29;20080;-50
2023/06/29 04:14:40;;;;;;;14.75;9.15;;;24.30;1.00;;;;;;4878718;29;20045;-49
2023/06/29 04:17:07;;;;;;;16.73;9.00;;;24.30;1.00;;;;;;4877170;29;20128;-50
2023/06/29 04:19:34;;;;;;;16.98;10.35;;;24.30;1.00;;;;;;4858112;29;20045;-52
2023/06/29 04:22:01;;;;;;;20.98;10.43;;;24.20;1.00;;;;;;4863742;29;20070;-53
2023/06/29 04:24:27;;;;;;;21.23;9.75;;;24.30;1.00;;;;;;4866564;29;20049;-53
2023/06/29 04:26:54;;;;;;;18.02;9.48;;;24.20;1.00;;;;;;4874480;29;20056;-53
2023/06/29 04:29:21;;;;;;;17.58;8.93;;;24.20;1.00;;;;;;4878843;29;20937;-51
2023/06/29 04:31:48;;;;;;;21.40;9.02;;;24.20;1.00;;;;;;4880333;29;20072;-51
2023/06/29 04:34:17;;;;;;;17.40;9.60;;;24.20;1.00;;;;;;4880023;29;20101;-49
2023/06/29 04:36:47;;;;;;;14.80;9.02;;;24.20;1.00;;;;;;4880485;29;20041;-55
2023/06/29 04:39:14;;;;;;;14.98;7.63;;;24.20;1.00;;;;;;4880129;29;20037;-51
2023/06/29 04:41:41;;;;;;;14.60;9.20;;;24.20;1.00;;;;;;4880170;29;20044;-54
2023/06/29 04:44:08;;;;;;;14.77;8.40;;;24.20;1.00;;;;;;4879928;29;20520;-51
2023/06/29 04:46:39;;;;;;;17.35;8.75;;;24.20;1.00;;;;;;4879905;29;20510;-54
2023/06/29 04:49:06;;;;;;;15.38;8.60;;;24.20;1.00;;;;;;4880028;29;20069;-53
2023/06/29 04:51:35;;;;;;;17.23;9.57;;;24.20;1.00;;;;;;4879845;29;20524;-51
2023/06/29 04:54:07;;;;;;;21.17;9.13;;;24.20;1.00;;;;;;4873357;29;20041;-52
2023/06/29 04:56:35;;;;;;;16.88;9.65;;;24.20;1.00;;;;;;4864572;29;20033;-52
2023/06/29 04:59:01;;;;;;;14.60;9.18;;;24.20;1.00;;;;;;4861575;29;20494;-53
2023/06/29 05:01:28;;;;;;;15.27;8.50;;;24.20;1.00;;;;;;4997749;23;20087;-51
2023/06/29 05:03:55;;;;;;;13.25;8.60;;;24.20;1.00;;;;;;4898367;29;20045;-50
2023/06/29 05:06:22;;;;;;;15.63;8.68;;;24.20;1.00;;;;;;4898484;29;20044;-52
2023/06/29 05:08:49;;;;;;;16.92;8.85;;;24.20;1.00;;;;;;4898283;29;20045;-52
2023/06/29 05:11:15;;;;;;;20.08;8.95;;;24.20;1.00;;;;;;4898380;29;20060;-54
2023/06/29 05:13:42;;;;;;;13.43;8.07;;;24.20;1.00;;;;;;4898099;29;20037;-52
2023/06/29 05:16:09;;;;;;;15.00;8.70;;;24.20;1.00;;;;;;4898262;29;20121;-51
2023/06/29 05:18:37;;;;;;;13.43;8.75;;;24.20;1.00;;;;;;4898077;29;20511;-53
2023/06/29 05:21:04;;;;;;;12.43;8.23;;;24.20;1.00;;;;;;4898194;29;20420;-54
2023/06/29 05:23:31;;;;;;;15.85;8.70;;;24.20;1.00;;;;;;4897843;29;20521;-56
2023/06/29 05:25:58;;;;;;;17.02;9.00;;;24.10;1.00;;;;;;4898173;29;20378;-50
2023/06/29 05:28:25;;;;;;;13.43;8.88;;;24.10;1.00;;;;;;4897820;29;20146;-53
2023/06/29 05:33:34;;;;;;;16.42;8.25;;;24.20;1.00;;;;;;4870229;29;20470;-55
2023/06/29 05:36:02;;;;;;;18.73;8.77;;;24.10;1.00;;;;;;4879090;29;20072;-55
2023/06/29 05:38:31;;;;;;;15.57;8.27;;;24.10;1.00;;;;;;4878938;29;20485;-54
2023/06/29 05:40:58;;;;;;;14.77;8.90;;;24.10;1.00;;;;;;4879071;29;20464;-51
2023/06/29 05:43:28;;;;;;;17.90;8.25;;;24.10;1.00;;;;;;4878449;29;20056;-52
2023/06/29 05:45:55;;;;;;;16.90;8.35;;;24.10;1.00;;;;;;4879126;29;20045;-51
2023/06/29 05:48:22;;;;;;;14.13;8.43;;;24.10;1.00;;;;;;4878798;29;20041;-51
2023/06/29 05:50:49;;;;;;;15.32;7.78;;;24.10;1.00;;;;;;4878829;29;20499;-51
2023/06/29 05:53:15;;;;;;;14.35;8.15;;;24.20;1.00;;;;;;4878666;29;20071;-53
2023/06/29 05:55:42;;;;;;;17.00;8.73;;;24.10;1.00;;;;;;4879001;29;20045;-54
2023/06/29 05:58:09;;;;;;;15.48;8.57;;;24.10;1.00;;;;;;4878892;29;20041;-51
2023/06/29 06:00:36;;;;;;;14.85;8.80;;;24.10;1.00;;;;;;4878749;29;20048;-54
2023/06/29 06:05:52;;;;;;;15.60;9.38;;;24.10;1.00;;;;;;4858252;29;20050;-57
2023/06/29 06:08:19;;;;;;;13.48;8.10;;;24.10;1.00;;;;;;4875443;29;20465;-51
2023/06/29 06:10:46;;;;;;;14.77;8.23;;;24.10;1.00;;;;;;4884396;29;20048;-54
2023/06/29 06:13:13;;;;;;;14.00;9.05;;;24.10;1.00;;;;;;4896207;29;20040;-57
2023/06/29 06:15:41;;;;;;;14.07;8.55;;;24.10;1.00;;;;;;4877304;29;20049;-54
2023/06/29 06:18:08;;;;;;;18.77;8.75;;;24.10;1.00;;;;;;4894094;29;20044;-56
2023/06/29 06:20:34;;;;;;;16.27;9.35;;;24.10;1.00;;;;;;4896989;29;20064;-56
2023/06/29 06:23:01;;;;;;;17.80;8.93;;;24.10;1.00;;;;;;4896984;29;20040;-53
2023/06/29 06:25:28;;;;;;;16.33;9.63;;;24.10;1.00;;;;;;4897072;29;20052;-52
2023/06/29 06:27:55;;;;;;;16.00;9.40;;;24.10;1.00;;;;;;4897305;29;20036;-54
2023/06/29 06:30:23;;;;;;;13.85;7.85;;;24.10;1.00;;;;;;4896928;29;20394;-52
2023/06/29 06:32:50;;;;;;;18.85;8.90;;;24.10;1.00;;;;;;4896723;29;20051;-55
2023/06/29 06:35:17;;;;;;;14.15;8.93;;;24.10;1.00;;;;;;4896561;29;20032;-53
2023/06/29 06:37:44;;;;;;;16.08;9.32;;;24.10;1.00;;;;;;5009290;23;20040;-50
2023/06/29 06:40:11;;;;;;;16.52;8.95;;;24.10;1.00;;;;;;4914146;29;20071;-52
2023/06/29 06:42:39;;;;;;;20.35;9.70;;;24.10;1.00;;;;;;4896462;29;20408;-52
2023/06/29 06:45:07;;;;;;;16.65;10.38;;;24.10;1.00;;;;;;4896460;29;20045;-50
2023/06/29 06:47:35;;;;;;;15.02;9.07;;;24.00;1.00;;;;;;4896319;29;20474;-54
2023/06/29 06:50:03;;;;;;;17.90;9.52;;;24.10;1.00;;;;;;4896534;29;20045;-55
2023/06/29 06:52:30;;;;;;;20.25;10.05;;;24.00;1.00;;;;;;4896317;29;20075;-52
2023/06/29 06:54:56;;;;;;;15.85;8.98;;;24.00;1.00;;;;;;4896499;29;20041;-50
2023/06/29 06:57:23;;;;;;;15.20;9.27;;;24.00;1.00;;;;;;4896449;29;20044;-50
2023/06/29 06:59:50;;;;;;;17.85;9.30;;;24.10;1.00;;;;;;4896451;29;20040;-53
2023/06/29 07:02:17;;;;;;;13.75;8.45;;;24.00;1.00;;;;;;4896358;29;20115;-57
2023/06/29 07:04:44;;;;;;;14.93;9.15;;;24.00;1.00;;;;;;4896290;29;20045;-56
2023/06/29 07:07:11;;;;;;;14.05;9.25;;;24.00;1.00;;;;;;4906725;23;20058;-54
2023/06/29 07:09:38;;;;;;;16.83;9.00;;;24.00;1.00;;;;;;4895607;29;21303;-53
2023/06/29 07:12:06;;;;;;;15.32;9.88;;;24.00;1.00;;;;;;4895578;29;20070;-54
2023/06/29 07:14:33;;;;;;;17.30;9.65;;;24.10;1.00;;;;;;4895187;29;20044;-51
2023/06/29 07:17:00;;;;;;;17.52;8.65;;;24.00;1.00;;;;;;4895668;29;20045;-54
2023/06/29 07:19:27;;;;;;;18.13;10.60;;;24.00;1.00;;;;;;4895484;29;20528;-51
2023/06/29 07:21:57;;;;;;;16.33;9.82;;;24.00;1.00;;;;;;4895640;29;20417;-54
2023/06/29 07:24:26;;;;;;;16.15;10.10;;;24.00;1.00;;;;;;4895932;29;20462;-51
2023/06/29 07:26:53;;;;;;;14.95;10.30;;;24.10;1.00;;;;;;4898985;29;20048;-52
2023/06/29 07:29:20;;;;;;;18.95;9.77;;;24.00;1.00;;;;;;4898729;29;20089;-57
2023/06/29 07:31:47;;;;;;;15.38;9.60;;;24.00;1.00;;;;;;4898792;29;20040;-53
2023/06/29 07:34:14;;;;;;;13.48;8.65;;;24.10;1.00;;;;;;4898560;29;20064;-57
2023/06/29 07:39:33;;;;;;;16.65;9.13;;;24.00;1.00;;;;;;5131815;27;20371;-54
2023/06/29 07:42:00;;;;;;;17.00;9.55;;;24.00;1.00;;;;;;5113232;28;20054;-51
2023/06/29 07:44:27;;;;;;;15.75;9.38;;;24.00;1.00;;;;;;5109092;28;20116;-50
2023/06/29 07:46:54;;;;;;;14.43;8.82;;;24.00;1.00;;;;;;5109421;28;20467;-52
2023/06/29 07:49:21;;;;;;;16.35;10.52;;;24.00;1.00;;;;;;5109109;28;20048;-51
2023/06/29 07:51:48;;;;;;;16.08;9.48;;;24.00;1.00;;;;;;5109171;28;20048;-50
2023/06/29 07:54:16;;;;;;;16.88;10.70;;;24.00;1.00;;;;;;5098473;28;20039;-49
2023/06/29 07:56:43;;;;;;;19.17;10.27;;;24.00;1.00;;;;;;5129631;28;20035;-50
2023/06/29 07:59:13;;;;;;;16.08;10.00;;;24.00;1.00;;;;;;5129565;28;20033;-48
2023/06/29 08:01:40;;;;;;;15.50;9.52;;;24.00;1.00;;;;;;5129345;27;20093;-51
2023/06/29 08:04:07;;;;;;;14.90;9.77;;;24.00;1.00;;;;;;5129236;28;20036;-55
2023/06/29 08:06:34;;;;;;;18.83;9.45;;;24.00;1.00;;;;;;5129487;28;20032;-52
2023/06/29 08:09:04;;;;;;;15.48;9.55;;;24.00;1.00;;;;;;5606089;22;20096;-51
2023/06/29 08:11:31;;;;;;;18.38;11.10;;;24.00;1.00;;;;;;5088377;28;20048;-51
2023/06/29 08:13:58;;;;;;;16.45;9.98;;;24.00;1.00;;;;;;5088280;28;20036;-53
2023/06/29 08:16:24;;;;;;;16.63;9.15;;;24.00;1.00;;;;;;5088613;28;20044;-54
2023/06/29 08:18:51;;;;;;;17.00;9.70;;;24.00;1.00;;;;;;5088570;28;20085;-52
2023/06/29 08:21:18;;;;;;;15.68;9.70;;;24.00;1.00;;;;;;5088418;28;20079;-50
2023/06/29 08:23:46;;;;;;;17.10;10.07;;;24.00;1.00;;;;;;5087851;28;20533;-51
2023/06/29 08:26:13;;;;;;;18.63;10.02;;;24.00;1.00;;;;;;5088131;28;20480;-54
2023/06/29 08:28:40;;;;;;;17.33;9.95;;;24.00;1.00;;;;;;5088150;28;20047;-51
2023/06/29 08:31:07;;;;;;;16.48;10.27;;;24.00;1.00;;;;;;5088123;28;20037;-51
2023/06/29 08:33:34;;;;;;;16.60;10.23;;;24.10;1.00;;;;;;5087841;28;20048;-51
2023/06/29 08:36:01;;;;;;;16.23;9.73;;;24.00;1.00;;;;;;5088174;28;20434;-56
2023/06/29 08:38:28;;;;;;;16.90;10.23;;;24.00;1.00;;;;;;5087803;28;20040;-52
2023/06/29 08:43:44;;;;;;;16.20;9.75;;;24.10;1.00;;;;;;4927507;29;20054;-52
2023/06/29 08:46:12;;;;;;;15.55;9.93;;;24.10;1.00;;;;;;4924467;29;20055;-51
2023/06/29 08:48:42;;;;;;;16.80;10.07;;;24.00;1.00;;;;;;4920887;29;20044;-52
2023/06/29 08:51:10;;;;;;;15.02;9.23;;;24.10;1.00;;;;;;4926442;29;20071;-52
2023/06/29 08:53:40;;;;;;;13.88;9.02;;;24.10;1.00;;;;;;4936748;29;20408;-50
2023/06/29 08:56:08;;;;;;;17.52;9.95;;;24.10;1.00;;;;;;4937026;29;20118;-53
2023/06/29 08:58:36;;;;;;;18.20;10.52;;;24.10;1.00;;;;;;4936953;29;20067;-52
2023/06/29 09:01:04;;;;;;;18.63;10.43;;;24.10;1.00;;;;;;4935715;29;20087;-55
2023/06/29 09:03:32;;;;;;;15.13;10.10;;;24.10;1.00;;;;;;4936781;29;20044;-50
2023/06/29 09:05:59;;;;;;;17.42;10.38;;;24.10;1.00;;;;;;4936895;29;20039;-52
2023/06/29 09:08:26;;;;;;;17.13;11.10;;;24.10;1.00;;;;;;4936635;29;20051;-57
2023/06/29 09:10:54;;;;;;;15.23;9.02;;;24.10;1.00;;;;;;4936901;29;20082;-58
2023/06/29 09:13:25;;;;;;;16.45;10.05;;;24.10;1.00;;;;;;5129861;23;20013;-55
2023/06/29 09:15:54;;;;;;;19.63;10.65;;;24.10;1.00;;;;;;4973604;28;20038;-55
2023/06/29 09:18:24;;;;;;;20.05;11.40;;;24.10;1.00;;;;;;4975307;28;20133;-58
2023/06/29 09:20:55;;;;;;;20.48;9.88;;;24.10;1.00;;;;;;4968174;28;20043;-57
2023/06/29 09:23:25;;;;;;;16.88;9.30;;;24.10;1.00;;;;;;4955376;29;20046;-51
2023/06/29 09:25:55;;;;;;;19.90;10.75;;;24.10;1.00;;;;;;4940436;29;20067;-52
2023/06/29 09:28:23;;;;;;;17.17;10.52;;;24.10;1.00;;;;;;4955672;29;20053;-53
2023/06/29 09:30:51;;;;;;;16.27;9.13;;;24.10;1.00;;;;;;4955520;28;20043;-50
2023/06/29 09:33:19;;;;;;;19.40;11.25;;;24.10;1.00;;;;;;4955268;29;20043;-51
2023/06/29 09:35:51;;;;;;;19.02;9.88;;;24.10;1.00;;;;;;4955411;29;20051;-50
2023/06/29 09:38:18;;;;;;;14.73;9.90;;;24.10;1.00;;;;;;4955390;29;20048;-52
2023/06/29 09:40:47;;;;;;;18.25;10.15;;;24.10;1.00;;;;;;4955431;28;20046;-50
2023/06/29 09:46:02;;;;;;;17.88;10.43;;;24.10;1.00;;;;;;4952400;28;20109;-51
2023/06/29 09:48:31;;;;;;;19.73;11.18;;;24.10;1.00;;;;;;4955223;28;20067;-51
2023/06/29 09:51:01;;;;;;;14.88;9.02;;;24.10;1.00;;;;;;4962958;28;20035;-52
2023/06/29 09:53:30;;;;;;;14.48;8.95;;;24.10;1.00;;;;;;4974007;28;20098;-53
2023/06/29 09:55:58;;;;;;;15.60;9.25;;;24.10;1.00;;;;;;4974386;28;20058;-51
2023/06/29 09:58:30;;;;;;;18.38;10.65;;;24.10;1.00;;;;;;4958648;28;20062;-54
2023/06/29 10:00:59;;;;;;;19.97;10.40;;;24.20;1.00;;;;;;4958989;28;20042;-54
2023/06/29 10:03:27;;;;;;;18.25;9.65;;;24.10;1.00;;;;;;4974443;28;20042;-53
2023/06/29 10:05:59;;;;;;;15.88;9.70;;;24.10;1.00;;;;;;4966559;28;20039;-50
2023/06/29 10:08:28;;;;;;;20.17;10.88;;;24.10;1.00;;;;;;4974055;28;20043;-54
2023/06/29 10:11:00;;;;;;;15.88;9.23;;;24.20;1.00;;;;;;4974114;28;20043;-54
2023/06/29 10:13:33;;;;;;;16.63;9.90;;;24.20;1.00;;;;;;4973804;28;20094;-53
2023/06/29 10:16:02;;;;;;;15.82;10.98;;;24.20;1.00;;;;;;5053119;23;20074;-50
2023/06/29 10:18:34;;;;;;;17.00;10.40;;;24.20;1.00;;;;;;4993347;28;20046;-50
2023/06/29 10:21:01;;;;;;;19.17;9.98;;;24.20;1.00;;;;;;4993720;28;20043;-55
2023/06/29 10:23:30;;;;;;;17.77;10.55;;;24.20;1.00;;;;;;4993028;28;20394;-53
2023/06/29 10:26:00;;;;;;;18.08;10.02;;;24.20;1.00;;;;;;4993332;28;20398;-53
2023/06/29 10:28:27;;;;;;;16.63;10.30;;;24.20;1.00;;;;;;4993217;28;20498;-54
2023/06/29 10:30:59;;;;;;;16.63;10.35;;;24.20;1.00;;;;;;4993023;28;20046;-54
2023/06/29 10:33:26;;;;;;;19.27;10.85;;;24.20;1.00;;;;;;4993256;28;20093;-53
2023/06/29 10:35:58;;;;;;;18.88;10.32;;;24.20;1.00;;;;;;4993063;28;20054;-55
2023/06/29 10:38:35;;;;;;;15.35;10.60;;;24.20;1.00;;;;;;4993115;28;20049;-56
2023/06/29 10:41:06;;;;;;;18.48;9.50;;;24.20;1.00;;;;;;4993037;28;20034;-54
2023/06/29 10:43:55;;;;;;;15.95;9.15;;;24.20;1.00;;;;;;4992844;28;20093;-52
2023/06/29 10:46:44;;;;;;;14.40;9.50;;;24.20;1.00;;;;;;4993310;28;20141;-50
2023/06/29 10:49:22;;;;;;;20.10;9.77;;;24.20;1.00;;;;;;4992943;28;20050;-53
2023/06/29 10:51:50;;;;;;;14.50;9.32;;;24.20;1.00;;;;;;4992847;28;20061;-52
2023/06/29 10:54:20;;;;;;;15.45;9.43;;;24.20;1.00;;;;;;4992866;28;20379;-54
2023/06/29 10:57:01;;;;;;;16.65;10.18;;;24.20;1.00;;;;;;4992830;28;20104;-52
2023/06/29 10:59:29;;;;;;;17.42;10.38;;;24.20;1.00;;;;;;4993243;28;20046;-51
2023/06/29 11:01:57;;;;;;;18.70;9.80;;;24.20;1.00;;;;;;4992859;28;20125;-51
2023/06/29 11:04:24;;;;;;;14.63;9.52;;;24.20;1.00;;;;;;4992755;28;20061;-54
2023/06/29 11:06:51;;;;;;;15.23;9.70;;;24.20;1.00;;;;;;4992962;28;20038;-54
2023/06/29 11:09:19;;;;;;;20.65;10.00;;;24.20;1.00;;;;;;4992777;28;20051;-51
2023/06/29 11:11:48;;;;;;;18.77;11.65;;;24.20;1.00;;;;;;4993182;28;20384;-54
2023/06/29 11:14:16;;;;;;;17.58;9.98;;;24.20;1.00;;;;;;4992325;28;20073;-52
2023/06/29 11:16:43;;;;;;;17.08;9.52;;;24.20;1.00;;;;;;5188247;23;20086;-55
2023/06/29 11:19:11;;;;;;;17.20;10.15;;;24.20;1.00;;;;;;4974934;28;20114;-53
2023/06/29 11:21:40;;;;;;;19.45;10.40;;;24.20;1.00;;;;;;4961199;28;20102;-55
2023/06/29 11:24:27;;;;;;;16.98;10.10;;;24.20;1.00;;;;;;4955476;29;20043;-52
2023/06/29 11:26:54;;;;;;;17.65;10.15;;;24.20;1.00;;;;;;4954980;29;20499;-55
2023/06/29 11:29:21;;;;;;;20.63;10.90;;;24.20;1.00;;;;;;4937620;29;20432;-52
2023/06/29 11:31:49;;;;;;;17.90;11.13;;;24.20;1.00;;;;;;4954755;28;20051;-51
2023/06/29 11:34:16;;;;;;;16.60;10.43;;;24.20;1.00;;;;;;4953987;29;20098;-52
2023/06/29 11:36:43;;;;;;;17.42;11.45;;;24.20;1.00;;;;;;4954350;29;20055;-52
2023/06/29 11:39:30;;;;;;;16.17;10.15;;;24.20;1.00;;;;;;4953580;29;20102;-54
2023/06/29 11:41:57;;;;;;;17.65;10.07;;;24.20;1.00;;;;;;4956853;28;20046;-51
2023/06/29 11:44:25;;;;;;;29.48;11.02;;;24.20;1.00;;;;;;4955416;29;20043;-54
2023/06/29 11:46:57;;;;;;;19.92;11.50;;;24.20;1.00;;;;;;5054232;23;20051;-52
2023/06/29 11:49:44;;;;;;;18.17;10.77;;;24.20;1.00;;;;;;4993776;28;20079;-51
2023/06/29 11:52:11;;;;;;;19.55;11.20;;;24.20;1.00;;;;;;4979194;28;20058;-52
2023/06/29 11:54:39;;;;;;;17.35;10.40;;;24.20;1.00;;;;;;4977098;28;20403;-54
2023/06/29 11:57:06;;;;;;;21.00;11.10;;;24.20;1.00;;;;;;4977737;28;20058;-54
2023/06/29 11:59:39;;;;;;;20.83;12.32;;;24.20;1.00;;;;;;4977323;28;20067;-54
2023/06/29 12:02:07;;;;;;;22.43;11.87;;;24.20;1.00;;;;;;4968589;28;20093;-52
2023/06/29 12:04:34;;;;;;;16.70;10.23;;;24.20;1.00;;;;;;4976941;28;20708;-51
2023/06/29 12:07:01;;;;;;;19.73;9.93;;;24.20;1.00;;;;;;4976874;28;20158;-51
2023/06/29 12:09:32;;;;;;;16.25;9.23;;;24.20;1.00;;;;;;4968155;28;20058;-50
2023/06/29 12:12:01;;;;;;;15.32;9.15;;;24.20;1.00;;;;;;4973646;28;20114;-55
2023/06/29 12:14:29;;;;;;;16.25;9.75;;;24.20;1.00;;;;;;4972276;28;20054;-52
2023/06/29 12:16:57;;;;;;;17.80;9.45;;;24.20;1.00;;;;;;4997275;23;20102;-54
2023/06/29 12:19:32;;;;;;;15.10;9.40;;;24.20;1.00;;;;;;4987308;28;20049;-56
2023/06/29 12:21:59;;;;;;;15.82;9.70;;;24.20;1.00;;;;;;4975647;28;20046;-54
2023/06/29 12:24:26;;;;;;;18.27;8.63;;;24.20;1.00;;;;;;4972680;28;20042;-56
2023/06/29 12:26:53;;;;;;;18.55;9.93;;;24.20;1.00;;;;;;4975887;28;20118;-57
2023/06/29 12:29:19;;;;;;;14.38;8.30;;;24.20;1.00;;;;;;4975906;28;20055;-57
2023/06/29 12:31:46;;;;;;;12.15;8.07;;;24.20;1.00;;;;;;4975679;28;20106;-55
2023/06/29 12:34:13;;;;;;;12.65;7.82;;;24.20;1.00;;;;;;4975546;28;20042;-56
2023/06/29 12:36:40;;;;;;;14.85;8.50;;;24.20;1.00;;;;;;4975650;28;20043;-56
2023/06/29 12:39:07;;;;;;;12.57;7.07;;;24.20;1.00;;;;;;4975816;28;20059;-56
2023/06/29 12:41:35;;;;;;;12.60;7.50;;;24.20;1.00;;;;;;4967703;28;20053;-55
2023/06/29 12:44:02;;;;;;;10.60;7.13;;;24.20;1.00;;;;;;4975363;28;20062;-57
2023/06/29 12:46:29;;;;;;;14.45;7.60;;;24.20;1.00;;;;;;4975739;28;20039;-55
2023/06/29 12:48:58;;;;;;;10.45;6.97;;;24.20;1.00;;;;;;5451850;23;20077;-56
2023/06/29 12:51:25;;;;;;;10.18;6.32;;;24.20;1.00;;;;;;4994886;28;20042;-53
2023/06/29 12:53:55;;;;;;;10.80;6.97;;;24.20;1.00;;;;;;4994747;28;20038;-56
2023/06/29 12:56:21;;;;;;;10.25;6.60;;;24.20;1.00;;;;;;4995036;28;20475;-55
2023/06/29 12:58:48;;;;;;;9.80;5.90;;;24.20;1.00;;;;;;4994618;28;20081;-55
2023/06/29 13:01:15;;;;;;;13.23;5.97;;;24.20;1.00;;;;;;4994763;28;20034;-57
2023/06/29 13:03:42;;;;;;;9.55;6.20;;;24.20;1.00;;;;;;4994356;28;20038;-57
2023/06/29 13:06:09;;;;;;;11.32;6.45;;;24.20;1.00;;;;;;4994777;28;20038;-57
2023/06/29 13:08:36;;;;;;;11.65;5.63;;;24.20;1.00;;;;;;4994965;28;20399;-55
2023/06/29 13:11:04;;;;;;;10.10;6.43;;;24.20;1.00;;;;;;4994398;28;20040;-57
2023/06/29 13:13:31;;;;;;;10.43;6.03;;;24.20;1.00;;;;;;4994324;28;20125;-55
2023/06/29 13:15:58;;;;;;;8.25;4.50;;;24.20;1.00;;;;;;4994619;28;20046;-56